Time;durP1;ratioP1;P1;durP2;ratioP2;P2;SDS_P1;SDS_P2;PMS_P1;PMS_P2;Temp;Humidity;BMP_temperature;BMP_pressure;BME280_temperature;BME280_humidity;BME280_pressure;Samples;Min_cycle;Max_cycle;Signal;HPM_P1;HPM_P2
2022/12/23 00:01:16;;;;;;;121.75;38.95;;;;;;;;;;4978214;28;20033;-80
2022/12/23 00:03:43;;;;;;;121.38;38.05;;;;;;;;;;4986403;28;20030;-80
2022/12/23 00:06:10;;;;;;;115.63;35.25;;;;;;;;;;4968075;28;20385;-81
2022/12/23 00:08:36;;;;;;;110.57;35.92;;;;;;;;;;4978353;28;20063;-81
2022/12/23 00:11:03;;;;;;;129.98;37.15;;;;;;;;;;4982571;28;20038;-80
2022/12/23 00:16:14;;;;;;;110.13;32.63;;;;;;;;;;4982916;28;20034;-82
2022/12/23 00:18:41;;;;;;;119.43;34.20;;;;;;;;;;4986643;28;20026;-82
2022/12/23 00:21:08;;;;;;;105.78;32.72;;;;;;;;;;4986309;28;20368;-83
2022/12/23 00:23:35;;;;;;;114.78;33.70;;;;;;;;;;4983703;28;20117;-82
2022/12/23 00:26:01;;;;;;;111.70;34.08;;;;;;;;;;4986141;28;20173;-82
2022/12/23 00:28:28;;;;;;;114.55;32.42;;;;;;;;;;4978070;28;20422;-82
2022/12/23 00:31:02;;;;;;;120.72;34.08;;;;;;;;;;5001602;28;20058;-82
2022/12/23 00:33:35;;;;;;;120.60;33.65;;;;;;;;;;4986091;28;20037;-81
2022/12/23 00:36:02;;;;;;;116.40;33.25;;;;;;;;;;4988569;28;20026;-81
2022/12/23 00:44:02;;;;;;;104.85;30.13;;;;;;;;;;4979976;28;20483;-81
2022/12/23 00:46:28;;;;;;;123.70;30.42;;;;;;;;;;4986043;28;20443;-82
2022/12/23 00:51:39;;;;;;;101.43;27.75;;;;;;;;;;4994829;28;20039;-81
2022/12/23 00:54:06;;;;;;;123.40;29.25;;;;;;;;;;4993557;28;20052;-82
2022/12/23 00:56:32;;;;;;;103.75;28.23;;;;;;;;;;4961186;28;20042;-81
2022/12/23 00:58:58;;;;;;;116.70;29.52;;;;;;;;;;4985648;28;20480;-81
2022/12/23 01:06:58;;;;;;;125.35;31.77;;;;;;;;;;4985591;28;20030;-81
2022/12/23 01:09:24;;;;;;;127.95;30.88;;;;;;;;;;4984823;28;20372;-81
2022/12/23 01:11:50;;;;;;;120.78;30.83;;;;;;;;;;4982770;28;20031;-81
2022/12/23 01:14:16;;;;;;;124.03;31.27;;;;;;;;;;4988428;28;20038;-82
2022/12/23 01:16:43;;;;;;;138.52;31.63;;;;;;;;;;4985962;28;20129;-82
2022/12/23 01:19:09;;;;;;;131.55;30.67;;;;;;;;;;4970295;28;20125;-80
2022/12/23 01:21:36;;;;;;;140.07;30.90;;;;;;;;;;4980930;28;20022;-81
2022/12/23 01:24:02;;;;;;;132.45;32.72;;;;;;;;;;4972392;28;20403;-82
2022/12/23 01:26:28;;;;;;;147.65;31.13;;;;;;;;;;4984942;28;20061;-82
2022/12/23 01:28:55;;;;;;;131.35;29.85;;;;;;;;;;4984447;28;20053;-81
2022/12/23 01:31:21;;;;;;;125.95;30.52;;;;;;;;;;4987772;28;20034;-82
2022/12/23 01:33:47;;;;;;;119.38;29.77;;;;;;;;;;5002250;28;20092;-81
2022/12/23 01:36:13;;;;;;;113.82;29.90;;;;;;;;;;4985936;28;20054;-83
2022/12/23 01:38:40;;;;;;;125.20;29.40;;;;;;;;;;4980720;28;20037;-82
2022/12/23 01:41:06;;;;;;;115.53;30.45;;;;;;;;;;4982438;28;20436;-83
2022/12/23 01:43:48;;;;;;;107.32;27.60;;;;;;;;;;4964946;28;20536;-83
2022/12/23 01:46:15;;;;;;;102.05;25.83;;;;;;;;;;4988684;28;20062;-82
2022/12/23 01:48:43;;;;;;;107.07;27.63;;;;;;;;;;4995828;28;20129;-82
2022/12/23 01:51:15;;;;;;;110.18;26.75;;;;;;;;;;4982756;28;20399;-82
2022/12/23 01:53:45;;;;;;;107.05;24.52;;;;;;;;;;4978214;28;20049;-82
2022/12/23 01:56:14;;;;;;;103.80;26.55;;;;;;;;;;4990434;28;20125;-82
2022/12/23 01:58:43;;;;;;;86.05;24.23;;;;;;;;;;4984463;28;20065;-82
2022/12/23 02:03:57;;;;;;;95.68;27.05;;;;;;;;;;4984914;28;20053;-82
2022/12/23 02:09:16;;;;;;;108.15;27.65;;;;;;;;;;4986340;28;20090;-82
2022/12/23 02:12:00;;;;;;;92.78;26.63;;;;;;;;;;4987658;28;20380;-82
2022/12/23 02:17:30;;;;;;;95.65;28.83;;;;;;;;;;4999122;28;20050;-82
2022/12/23 02:20:16;;;;;;;110.95;29.35;;;;;;;;;;5001151;28;20062;-81
2022/12/23 02:22:48;;;;;;;98.97;28.02;;;;;;;;;;4982143;28;20061;-81
2022/12/23 02:25:23;;;;;;;103.18;29.20;;;;;;;;;;5022771;28;20098;-82
2022/12/23 02:27:57;;;;;;;109.10;29.25;;;;;;;;;;5012645;28;20042;-88
2022/12/23 02:30:29;;;;;;;116.97;30.60;;;;;;;;;;5020636;28;20026;-80
2022/12/23 02:33:05;;;;;;;106.90;30.13;;;;;;;;;;5011354;28;20086;-84
2022/12/23 02:35:52;;;;;;;110.32;29.05;;;;;;;;;;5013508;28;20026;-82
2022/12/23 02:38:35;;;;;;;106.97;29.33;;;;;;;;;;4983443;28;20046;-83
2022/12/23 02:41:04;;;;;;;115.65;32.47;;;;;;;;;;5004631;28;20035;-81
2022/12/23 02:43:30;;;;;;;109.03;30.13;;;;;;;;;;5002808;28;20381;-81
2022/12/23 02:45:56;;;;;;;107.20;29.00;;;;;;;;;;5000570;28;20026;-81
2022/12/23 02:48:29;;;;;;;105.78;30.40;;;;;;;;;;4989642;28;20033;-83
2022/12/23 02:50:56;;;;;;;123.43;32.47;;;;;;;;;;4991988;28;20069;-82
2022/12/23 02:53:28;;;;;;;116.82;29.40;;;;;;;;;;4987264;28;20032;-83
2022/12/23 02:55:55;;;;;;;133.82;32.47;;;;;;;;;;5005099;28;20570;-81
2022/12/23 02:58:24;;;;;;;115.43;30.73;;;;;;;;;;4987976;28;20031;-83
2022/12/23 03:00:51;;;;;;;123.28;31.38;;;;;;;;;;4984142;28;20392;-83
2022/12/23 03:03:19;;;;;;;121.15;32.13;;;;;;;;;;4983866;28;20031;-82
2022/12/23 03:05:46;;;;;;;134.38;32.25;;;;;;;;;;4977038;28;20105;-82
2022/12/23 03:08:33;;;;;;;131.05;29.98;;;;;;;;;;4986555;28;20037;-82
2022/12/23 03:11:11;;;;;;;113.07;29.48;;;;;;;;;;4985247;28;20065;-82
2022/12/23 03:13:56;;;;;;;102.28;29.00;;;;;;;;;;4976949;28;20428;-83
2022/12/23 03:16:31;;;;;;;93.28;27.35;;;;;;;;;;4998331;28;20030;-82
2022/12/23 03:19:05;;;;;;;98.97;25.70;;;;;;;;;;4985678;28;20027;-82
2022/12/23 03:21:38;;;;;;;99.90;28.17;;;;;;;;;;4982880;28;20051;-81
2022/12/23 03:24:07;;;;;;;112.70;26.52;;;;;;;;;;4992325;28;20560;-82
2022/12/23 03:26:40;;;;;;;104.95;28.17;;;;;;;;;;4995518;28;20072;-81
2022/12/23 03:29:20;;;;;;;107.28;27.20;;;;;;;;;;4988504;28;20054;-82
2022/12/23 03:31:47;;;;;;;107.57;27.58;;;;;;;;;;4983880;28;20030;-82
2022/12/23 03:34:16;;;;;;;112.10;28.15;;;;;;;;;;4977419;28;20026;-83
2022/12/23 03:36:46;;;;;;;96.85;26.33;;;;;;;;;;5000056;28;20037;-82
2022/12/23 03:39:15;;;;;;;95.97;25.52;;;;;;;;;;4980973;28;20476;-82
2022/12/23 03:41:44;;;;;;;99.97;26.75;;;;;;;;;;4971320;28;20038;-82
2022/12/23 03:44:13;;;;;;;101.65;27.48;;;;;;;;;;4984825;28;20022;-82
2022/12/23 03:46:45;;;;;;;111.50;25.98;;;;;;;;;;4986240;28;20138;-82
2022/12/23 03:49:15;;;;;;;103.35;25.98;;;;;;;;;;4977133;28;20040;-82
2022/12/23 03:51:50;;;;;;;101.55;28.13;;;;;;;;;;4985859;28;20446;-82
2022/12/23 03:54:19;;;;;;;91.13;26.27;;;;;;;;;;4986306;28;20030;-82
2022/12/23 03:56:48;;;;;;;97.35;26.17;;;;;;;;;;4984729;28;20411;-82
2022/12/23 03:59:17;;;;;;;139.75;29.55;;;;;;;;;;4961251;28;20060;-82
2022/12/23 04:01:58;;;;;;;127.85;28.50;;;;;;;;;;4980126;28;20427;-82
2022/12/23 04:04:34;;;;;;;119.75;28.35;;;;;;;;;;4986402;28;20048;-82
2022/12/23 04:07:11;;;;;;;145.20;29.08;;;;;;;;;;4980811;28;20078;-82
2022/12/23 04:09:37;;;;;;;122.43;30.88;;;;;;;;;;4981974;28;20049;-82
2022/12/23 04:12:04;;;;;;;116.55;30.55;;;;;;;;;;4987999;28;20382;-82
2022/12/23 04:14:31;;;;;;;128.32;32.05;;;;;;;;;;4986051;28;20595;-81
2022/12/23 04:16:58;;;;;;;130.10;32.75;;;;;;;;;;4971931;28;20032;-81
2022/12/23 04:19:24;;;;;;;133.80;35.97;;;;;;;;;;4971729;28;20034;-82
2022/12/23 04:21:50;;;;;;;119.65;34.28;;;;;;;;;;4999603;28;20019;-81
2022/12/23 04:24:16;;;;;;;157.70;37.65;;;;;;;;;;4998792;28;20031;-82
2022/12/23 04:26:42;;;;;;;140.48;35.55;;;;;;;;;;4984458;28;20050;-82
2022/12/23 04:29:10;;;;;;;139.70;35.75;;;;;;;;;;4984988;28;20030;-82
2022/12/23 04:31:36;;;;;;;156.07;36.65;;;;;;;;;;4970563;28;20350;-83
2022/12/23 04:34:02;;;;;;;160.43;36.70;;;;;;;;;;4972371;28;20081;-83
2022/12/23 04:36:28;;;;;;;141.32;35.80;;;;;;;;;;4986107;28;20428;-82
2022/12/23 04:38:54;;;;;;;176.75;38.72;;;;;;;;;;4985260;28;20038;-82
2022/12/23 04:41:21;;;;;;;146.63;36.67;;;;;;;;;;4984298;28;20046;-82
2022/12/23 04:43:47;;;;;;;187.48;37.83;;;;;;;;;;4984414;28;20469;-83
2022/12/23 04:46:13;;;;;;;136.10;34.20;;;;;;;;;;4971496;28;20035;-83
2022/12/23 04:48:39;;;;;;;160.15;37.75;;;;;;;;;;4999894;28;20066;-82
2022/12/23 04:51:05;;;;;;;156.45;37.20;;;;;;;;;;4984498;28;20038;-83
2022/12/23 04:53:31;;;;;;;154.77;35.75;;;;;;;;;;4981757;28;20081;-82
2022/12/23 04:55:58;;;;;;;167.88;38.05;;;;;;;;;;4985968;28;20038;-83
2022/12/23 04:58:24;;;;;;;143.60;36.55;;;;;;;;;;4986215;28;20455;-82
2022/12/23 05:01:00;;;;;;;141.93;37.53;;;;;;;;;;5001549;28;20411;-83
2022/12/23 05:03:26;;;;;;;150.65;36.15;;;;;;;;;;4980522;28;20019;-82
2022/12/23 05:05:52;;;;;;;153.07;36.40;;;;;;;;;;5004884;28;20054;-82
2022/12/23 05:08:18;;;;;;;133.95;36.45;;;;;;;;;;4983621;28;20982;-82
2022/12/23 05:10:45;;;;;;;146.00;36.78;;;;;;;;;;4979291;28;20093;-83
2022/12/23 05:13:11;;;;;;;172.43;37.50;;;;;;;;;;4987111;28;20508;-82
2022/12/23 05:15:37;;;;;;;146.93;38.00;;;;;;;;;;4972862;28;20136;-82
2022/12/23 05:18:04;;;;;;;177.32;37.78;;;;;;;;;;4999475;28;20492;-82
2022/12/23 05:20:30;;;;;;;135.10;34.53;;;;;;;;;;4985221;28;20497;-82
2022/12/23 05:22:56;;;;;;;188.70;37.63;;;;;;;;;;4984425;28;20113;-82
2022/12/23 05:25:23;;;;;;;170.63;36.53;;;;;;;;;;4980591;28;20038;-83
2022/12/23 05:27:49;;;;;;;158.02;38.85;;;;;;;;;;4988128;28;20034;-82
2022/12/23 05:30:15;;;;;;;144.73;37.28;;;;;;;;;;4970895;28;20377;-81
2022/12/23 05:32:41;;;;;;;155.05;36.80;;;;;;;;;;4988354;28;20423;-82
2022/12/23 05:35:07;;;;;;;144.40;36.60;;;;;;;;;;4987834;28;20038;-82
2022/12/23 05:37:33;;;;;;;146.02;35.35;;;;;;;;;;4986690;28;20030;-83
2022/12/23 05:39:59;;;;;;;161.68;35.22;;;;;;;;;;4988982;28;20026;-81
2022/12/23 05:42:25;;;;;;;158.68;36.00;;;;;;;;;;4987950;28;20387;-83
2022/12/23 05:44:51;;;;;;;142.32;34.72;;;;;;;;;;4984859;28;20031;-84
2022/12/23 05:47:18;;;;;;;153.68;33.72;;;;;;;;;;4987351;28;20041;-81
2022/12/23 05:49:44;;;;;;;136.43;31.40;;;;;;;;;;4970536;28;20082;-83
2022/12/23 05:52:10;;;;;;;118.07;30.05;;;;;;;;;;4963415;28;20531;-82
2022/12/23 05:54:36;;;;;;;124.47;31.02;;;;;;;;;;4987894;28;20050;-83
2022/12/23 05:57:02;;;;;;;128.65;29.15;;;;;;;;;;4986036;28;20031;-83
2022/12/23 05:59:28;;;;;;;146.55;31.75;;;;;;;;;;4987352;28;20042;-83
2022/12/23 06:01:54;;;;;;;123.85;28.55;;;;;;;;;;4972729;28;20025;-83
2022/12/23 06:04:20;;;;;;;123.28;29.63;;;;;;;;;;4971925;28;20037;-83
2022/12/23 06:06:46;;;;;;;118.35;28.40;;;;;;;;;;4985154;28;20064;-81
2022/12/23 06:09:13;;;;;;;124.57;28.67;;;;;;;;;;4985004;28;20594;-83
2022/12/23 06:11:39;;;;;;;116.88;27.95;;;;;;;;;;4985362;28;20035;-82
2022/12/23 06:14:06;;;;;;;116.43;28.67;;;;;;;;;;4988001;28;20043;-83
2022/12/23 06:16:32;;;;;;;132.10;30.00;;;;;;;;;;5006621;28;20038;-82
2022/12/23 06:19:00;;;;;;;117.82;30.10;;;;;;;;;;4988490;28;20364;-83
2022/12/23 06:21:26;;;;;;;115.63;31.17;;;;;;;;;;4988724;28;20040;-83
2022/12/23 06:23:52;;;;;;;112.75;31.60;;;;;;;;;;4987558;28;20745;-83
2022/12/23 06:26:18;;;;;;;125.20;31.52;;;;;;;;;;4990315;28;20034;-83
2022/12/23 06:28:44;;;;;;;129.45;29.98;;;;;;;;;;4988450;28;20068;-82
2022/12/23 06:31:10;;;;;;;148.10;32.63;;;;;;;;;;4984810;28;20041;-82
2022/12/23 06:33:36;;;;;;;143.52;31.25;;;;;;;;;;4987926;28;20620;-82
2022/12/23 06:36:03;;;;;;;182.90;31.95;;;;;;;;;;4990528;28;20030;-81
2022/12/23 06:38:29;;;;;;;142.10;31.50;;;;;;;;;;4970800;28;20380;-83
2022/12/23 06:40:55;;;;;;;122.65;30.45;;;;;;;;;;4988701;28;20038;-82
2022/12/23 06:43:21;;;;;;;170.70;31.30;;;;;;;;;;4984438;28;20035;-83
2022/12/23 06:45:49;;;;;;;128.35;29.23;;;;;;;;;;4987817;28;20092;-81
2022/12/23 06:48:19;;;;;;;179.32;31.10;;;;;;;;;;4991935;28;20623;-82
2022/12/23 06:50:45;;;;;;;161.32;30.63;;;;;;;;;;4991185;28;20042;-81
2022/12/23 06:59:51;;;;;;;171.10;31.35;;;;;;;;;;5012268;28;20022;-87
2022/12/23 07:02:18;;;;;;;149.15;31.50;;;;;;;;;;5006520;28;20031;-83
2022/12/23 07:04:44;;;;;;;138.48;32.30;;;;;;;;;;5011141;28;20670;-81
2022/12/23 07:07:11;;;;;;;153.27;32.50;;;;;;;;;;5017370;28;20061;-81
2022/12/23 07:09:37;;;;;;;193.02;32.40;;;;;;;;;;5004884;28;20041;-81
2022/12/23 07:12:03;;;;;;;179.38;32.25;;;;;;;;;;5005117;28;20037;-80
2022/12/23 07:14:29;;;;;;;136.57;29.27;;;;;;;;;;4983511;28;20126;-81
2022/12/23 07:16:55;;;;;;;133.45;29.10;;;;;;;;;;4995492;28;20148;-80
2022/12/23 07:19:21;;;;;;;133.15;28.45;;;;;;;;;;4990340;28;20042;-81
2022/12/23 07:21:47;;;;;;;135.75;28.63;;;;;;;;;;5004185;28;20447;-81
2022/12/23 07:24:13;;;;;;;146.02;30.13;;;;;;;;;;4988935;28;20373;-81
2022/12/23 07:26:40;;;;;;;134.02;30.20;;;;;;;;;;5007493;28;20093;-81
2022/12/23 07:29:06;;;;;;;129.82;28.70;;;;;;;;;;4991026;28;20439;-83
2022/12/23 07:31:32;;;;;;;159.38;29.95;;;;;;;;;;4981643;28;20061;-82
2022/12/23 07:33:58;;;;;;;149.90;30.42;;;;;;;;;;4970812;28;20377;-82
2022/12/23 07:36:25;;;;;;;145.68;28.42;;;;;;;;;;4989278;28;20041;-82
2022/12/23 07:38:51;;;;;;;158.55;28.80;;;;;;;;;;4992610;28;20035;-81
2022/12/23 07:41:17;;;;;;;163.18;28.90;;;;;;;;;;4993200;28;20389;-81
2022/12/23 07:43:43;;;;;;;172.55;28.65;;;;;;;;;;4991860;28;20038;-82
2022/12/23 07:46:09;;;;;;;209.25;31.15;;;;;;;;;;5005855;28;20089;-82
2022/12/23 07:48:36;;;;;;;163.45;31.90;;;;;;;;;;4971532;28;20030;-81
2022/12/23 07:51:03;;;;;;;193.48;39.08;;;;;;;;;;4982794;28;20069;-82
2022/12/23 07:53:29;;;;;;;185.02;36.45;;;;;;;;;;4988170;28;20041;-82
2022/12/23 07:55:55;;;;;;;215.18;36.88;;;;;;;;;;4985189;28;20408;-83
2022/12/23 07:58:22;;;;;;;237.57;37.95;;;;;;;;;;4986892;28;20118;-82
2022/12/23 08:00:48;;;;;;;170.70;38.25;;;;;;;;;;4988781;28;20133;-82
2022/12/23 08:03:14;;;;;;;180.38;35.22;;;;;;;;;;4971016;28;20384;-82
2022/12/23 08:05:40;;;;;;;205.18;60.22;;;;;;;;;;4984605;28;20117;-81
2022/12/23 08:08:06;;;;;;;200.07;42.58;;;;;;;;;;4969782;28;20041;-82
2022/12/23 08:10:32;;;;;;;205.57;40.92;;;;;;;;;;4985302;28;20097;-82
2022/12/23 08:13:01;;;;;;;222.80;45.38;;;;;;;;;;4987640;28;20113;-82
2022/12/23 08:15:28;;;;;;;214.70;39.97;;;;;;;;;;4971667;28;20129;-81
2022/12/23 08:17:55;;;;;;;202.85;37.75;;;;;;;;;;4989358;28;20479;-82
2022/12/23 08:20:21;;;;;;;187.77;37.90;;;;;;;;;;5002234;28;20026;-81
2022/12/23 08:22:47;;;;;;;183.68;38.90;;;;;;;;;;4975856;28;20039;-81
2022/12/23 08:25:13;;;;;;;182.80;40.45;;;;;;;;;;4988538;28;20588;-82
2022/12/23 08:27:39;;;;;;;191.25;38.83;;;;;;;;;;4984146;28;20624;-82
2022/12/23 08:30:06;;;;;;;197.73;39.05;;;;;;;;;;4998998;28;20034;-83
2022/12/23 08:32:32;;;;;;;191.05;37.70;;;;;;;;;;4986540;28;20205;-82
2022/12/23 08:34:58;;;;;;;184.45;38.67;;;;;;;;;;4980635;28;20031;-82
2022/12/23 08:37:25;;;;;;;185.10;36.92;;;;;;;;;;4990690;28;20072;-82
2022/12/23 08:39:51;;;;;;;200.32;40.63;;;;;;;;;;4985129;28;20376;-82
2022/12/23 08:42:17;;;;;;;186.65;41.28;;;;;;;;;;4964653;28;20046;-82
2022/12/23 08:44:44;;;;;;;185.52;40.03;;;;;;;;;;4975853;28;20550;-82
2022/12/23 08:47:10;;;;;;;171.68;36.92;;;;;;;;;;4987592;28;20895;-81
2022/12/23 08:49:36;;;;;;;166.95;36.78;;;;;;;;;;4990560;28;20045;-82
2022/12/23 08:52:02;;;;;;;185.60;39.63;;;;;;;;;;4985626;28;20042;-82
2022/12/23 08:54:28;;;;;;;194.80;38.65;;;;;;;;;;4985625;28;20033;-82
2022/12/23 08:56:54;;;;;;;172.10;36.10;;;;;;;;;;4989335;28;20030;-81
2022/12/23 08:59:20;;;;;;;182.57;36.33;;;;;;;;;;4987282;28;20068;-82
2022/12/23 09:01:47;;;;;;;183.75;37.08;;;;;;;;;;4967468;28;20030;-82
2022/12/23 09:04:13;;;;;;;207.13;38.13;;;;;;;;;;4991919;28;20058;-82
2022/12/23 09:06:40;;;;;;;270.95;38.90;;;;;;;;;;4984011;28;20408;-81
2022/12/23 09:09:06;;;;;;;265.65;39.83;;;;;;;;;;4987241;28;20077;-82
2022/12/23 09:11:33;;;;;;;328.15;42.78;;;;;;;;;;4993163;28;20038;-82
2022/12/23 09:13:59;;;;;;;340.92;44.63;;;;;;;;;;4989531;28;20046;-81
2022/12/23 09:16:26;;;;;;;445.90;49.15;;;;;;;;;;4973608;28;20041;-82
2022/12/23 09:18:52;;;;;;;436.98;50.28;;;;;;;;;;4985587;28;20034;-83
2022/12/23 09:21:19;;;;;;;397.08;52.95;;;;;;;;;;4988437;28;20027;-81
2022/12/23 09:23:46;;;;;;;432.48;51.10;;;;;;;;;;4986022;28;20018;-83
2022/12/23 09:26:16;;;;;;;442.10;50.25;;;;;;;;;;4988253;28;20117;-82
2022/12/23 09:28:43;;;;;;;460.83;51.22;;;;;;;;;;4991638;28;20027;-82
2022/12/23 09:31:09;;;;;;;487.70;51.63;;;;;;;;;;4979106;28;20117;-81
2022/12/23 09:33:36;;;;;;;382.00;51.72;;;;;;;;;;4988558;28;20042;-81
2022/12/23 09:36:03;;;;;;;505.83;54.00;;;;;;;;;;4981338;28;20029;-83
2022/12/23 09:38:29;;;;;;;436.48;51.25;;;;;;;;;;4979800;28;20034;-82
2022/12/23 09:41:14;;;;;;;318.73;49.90;;;;;;;;;;4989762;28;20053;-81
2022/12/23 09:43:47;;;;;;;329.25;50.35;;;;;;;;;;4986821;28;20033;-82
2022/12/23 09:46:23;;;;;;;288.95;45.20;;;;;;;;;;4997845;28;21782;-84
2022/12/23 09:48:55;;;;;;;321.90;48.90;;;;;;;;;;4984890;28;20026;-84
2022/12/23 09:51:22;;;;;;;242.05;43.22;;;;;;;;;;4996595;28;20065;-81
2022/12/23 09:53:55;;;;;;;289.40;46.25;;;;;;;;;;4987994;28;20034;-83
2022/12/23 09:56:30;;;;;;;320.05;50.22;;;;;;;;;;4983261;28;20041;-82
2022/12/23 09:59:03;;;;;;;243.55;40.80;;;;;;;;;;4992462;28;20057;-82
2022/12/23 10:01:36;;;;;;;226.63;39.50;;;;;;;;;;5000882;28;20041;-82
2022/12/23 10:04:21;;;;;;;260.95;39.88;;;;;;;;;;4980906;28;20018;-82
2022/12/23 10:07:03;;;;;;;212.93;36.25;;;;;;;;;;4973304;28;20054;-82
2022/12/23 10:09:30;;;;;;;203.43;35.72;;;;;;;;;;4973406;28;20408;-83
2022/12/23 10:11:56;;;;;;;234.40;36.65;;;;;;;;;;4974363;28;20457;-83
2022/12/23 10:14:24;;;;;;;198.43;34.80;;;;;;;;;;4973221;28;20519;-83
2022/12/23 10:16:59;;;;;;;190.00;35.63;;;;;;;;;;4972818;28;20051;-86
2022/12/23 10:19:40;;;;;;;190.35;34.72;;;;;;;;;;5007681;28;20410;-83
2022/12/23 10:22:13;;;;;;;182.77;32.33;;;;;;;;;;4991597;28;20027;-83
2022/12/23 10:24:41;;;;;;;205.00;32.38;;;;;;;;;;4993188;28;20137;-83
2022/12/23 10:27:22;;;;;;;197.88;32.72;;;;;;;;;;4991846;28;20466;-83
2022/12/23 10:29:48;;;;;;;;;;;;;;;;;;4992408;28;20026;-80
2022/12/23 10:32:23;;;;;;;211.38;32.03;;;;;;;;;;4991488;28;20000;-82
2022/12/23 10:35:09;;;;;;;245.68;35.35;;;;;;;;;;4992630;28;20031;-82
2022/12/23 10:37:42;;;;;;;250.57;34.35;;;;;;;;;;4991567;28;20127;-82
2022/12/23 10:40:17;;;;;;;220.02;31.88;;;;;;;;;;4992741;28;20034;-83
2022/12/23 10:42:49;;;;;;;226.82;32.00;;;;;;;;;;4991496;28;20076;-82
2022/12/23 10:45:15;;;;;;;229.35;35.60;;;;;;;;;;4991687;28;20049;-82
2022/12/23 10:47:41;;;;;;;239.15;34.10;;;;;;;;;;4992683;28;20141;-82
2022/12/23 10:50:07;;;;;;;220.18;35.65;;;;;;;;;;4991424;28;20034;-82
2022/12/23 10:52:35;;;;;;;221.27;34.78;;;;;;;;;;4991492;28;20411;-82
2022/12/23 10:55:04;;;;;;;216.98;35.33;;;;;;;;;;4991802;28;20121;-83
2022/12/23 10:57:30;;;;;;;219.80;35.90;;;;;;;;;;4987981;28;20043;-82
2022/12/23 10:59:57;;;;;;;226.82;35.72;;;;;;;;;;4972173;28;20416;-81
2022/12/23 11:02:23;;;;;;;240.77;39.25;;;;;;;;;;4988525;28;20404;-83
2022/12/23 11:04:50;;;;;;;237.93;40.08;;;;;;;;;;4973280;28;20046;-82
2022/12/23 11:07:18;;;;;;;283.90;42.08;;;;;;;;;;4972004;28;20035;-82
2022/12/23 11:09:50;;;;;;;287.55;42.30;;;;;;;;;;4982338;28;20095;-82
2022/12/23 11:12:21;;;;;;;309.70;41.88;;;;;;;;;;5006534;28;20124;-81
2022/12/23 11:14:47;;;;;;;;;;;;;;;;;;4991708;28;20056;-80
2022/12/23 11:17:24;;;;;;;294.70;43.40;;;;;;;;;;4991469;28;20370;-82
2022/12/23 11:20:11;;;;;;;271.88;44.28;;;;;;;;;;4991552;28;20053;-81
2022/12/23 11:22:58;;;;;;;262.83;45.00;;;;;;;;;;4996210;28;20213;-82
2022/12/23 11:25:35;;;;;;;226.68;40.70;;;;;;;;;;4998049;28;20026;-82
2022/12/23 11:28:12;;;;;;;262.40;42.33;;;;;;;;;;4999188;28;20034;-83
2022/12/23 11:30:47;;;;;;;216.02;39.92;;;;;;;;;;5007486;28;20027;-82
2022/12/23 11:36:22;;;;;;;199.73;41.35;;;;;;;;;;5016644;28;20053;-81
2022/12/23 11:38:55;;;;;;;195.60;41.13;;;;;;;;;;5014738;28;20061;-90
2022/12/23 11:41:23;;;;;;;201.80;42.28;;;;;;;;;;5014520;28;20022;-80
2022/12/23 11:44:10;;;;;;;191.77;42.30;;;;;;;;;;5014894;28;20030;-83
2022/12/23 11:46:37;;;;;;;200.05;43.33;;;;;;;;;;4989385;28;20113;-84
2022/12/23 11:49:05;;;;;;;231.88;45.38;;;;;;;;;;4998964;28;20708;-82
2022/12/23 11:51:31;;;;;;;225.60;47.17;;;;;;;;;;4996240;28;20138;-82
2022/12/23 11:54:01;;;;;;;224.95;49.80;;;;;;;;;;5008239;28;20045;-82
2022/12/23 11:56:28;;;;;;;228.18;48.75;;;;;;;;;;4990358;28;20034;-82
2022/12/23 11:59:02;;;;;;;243.80;50.95;;;;;;;;;;4990866;28;20436;-85
2022/12/23 12:01:28;;;;;;;241.73;49.42;;;;;;;;;;4993134;28;20051;-82
2022/12/23 12:04:05;;;;;;;249.68;52.20;;;;;;;;;;4990810;28;20393;-84
2022/12/23 12:06:32;;;;;;;256.40;50.75;;;;;;;;;;4991291;28;20092;-82
2022/12/23 12:08:59;;;;;;;236.38;49.83;;;;;;;;;;4990022;28;20125;-81
2022/12/23 12:11:45;;;;;;;223.18;49.85;;;;;;;;;;4989506;28;20404;-80
2022/12/23 12:14:20;;;;;;;249.95;50.95;;;;;;;;;;4989530;28;20037;-80
2022/12/23 12:16:50;;;;;;;244.70;48.42;;;;;;;;;;4989945;28;20042;-82
2022/12/23 12:19:16;;;;;;;251.38;48.90;;;;;;;;;;4989285;28;20446;-81
2022/12/23 12:21:43;;;;;;;247.90;49.70;;;;;;;;;;4990489;28;20034;-82
2022/12/23 12:24:24;;;;;;;253.40;48.63;;;;;;;;;;4989606;28;20045;-82
2022/12/23 12:26:52;;;;;;;249.95;56.08;;;;;;;;;;4989503;28;20034;-81
2022/12/23 12:29:22;;;;;;;255.18;51.90;;;;;;;;;;4989696;28;20432;-82
2022/12/23 12:31:50;;;;;;;252.02;52.35;;;;;;;;;;4990115;28;20419;-83
2022/12/23 12:34:35;;;;;;;223.57;52.33;;;;;;;;;;4989644;28;20049;-82
2022/12/23 12:37:10;;;;;;;287.70;52.97;;;;;;;;;;4989313;28;20384;-82
2022/12/23 12:39:41;;;;;;;286.20;54.83;;;;;;;;;;4990632;28;20026;-82
2022/12/23 12:42:16;;;;;;;281.30;54.10;;;;;;;;;;4989634;28;20117;-81
2022/12/23 12:44:55;;;;;;;259.88;49.58;;;;;;;;;;4989865;28;20026;-82
2022/12/23 12:47:26;;;;;;;262.55;52.22;;;;;;;;;;4989839;28;20052;-81
2022/12/23 12:50:07;;;;;;;237.57;50.40;;;;;;;;;;4991237;28;20034;-81
2022/12/23 12:52:38;;;;;;;250.40;51.60;;;;;;;;;;4971758;28;20023;-81
2022/12/23 12:55:12;;;;;;;257.70;50.80;;;;;;;;;;4986931;28;20130;-81
2022/12/23 12:57:39;;;;;;;248.88;49.95;;;;;;;;;;4971765;28;20086;-81
2022/12/23 13:00:19;;;;;;;266.60;52.13;;;;;;;;;;4972489;28;20042;-81
2022/12/23 13:02:45;;;;;;;261.10;51.13;;;;;;;;;;4970352;28;20033;-81
2022/12/23 13:05:12;;;;;;;266.85;54.40;;;;;;;;;;4970161;28;21119;-82
2022/12/23 13:07:50;;;;;;;236.70;49.63;;;;;;;;;;4972013;28;20026;-81
2022/12/23 13:10:26;;;;;;;221.48;47.60;;;;;;;;;;4986465;28;20035;-82
2022/12/23 13:13:11;;;;;;;195.65;46.92;;;;;;;;;;4995983;28;20440;-82
2022/12/23 13:15:44;;;;;;;220.13;47.20;;;;;;;;;;4977325;28;20034;-82
2022/12/23 13:18:13;;;;;;;217.02;49.97;;;;;;;;;;5003426;28;20035;-82
2022/12/23 13:20:39;;;;;;;198.38;47.13;;;;;;;;;;4981716;28;20560;-83
2022/12/23 13:23:20;;;;;;;200.23;44.05;;;;;;;;;;4983790;28;20030;-82
2022/12/23 13:25:46;;;;;;;;;;;;;;;;;;4983431;28;20030;-80
2022/12/23 13:28:13;;;;;;;216.38;45.80;;;;;;;;;;4981766;28;19999;-85
2022/12/23 13:30:43;;;;;;;200.00;42.92;;;;;;;;;;4979268;28;20023;-82
2022/12/23 13:33:34;;;;;;;198.65;45.38;;;;;;;;;;4989840;28;20118;-82
2022/12/23 13:36:00;;;;;;;173.27;42.50;;;;;;;;;;4985943;28;20101;-85
2022/12/23 13:38:26;;;;;;;186.68;41.63;;;;;;;;;;4985998;28;20062;-88
2022/12/23 13:40:52;;;;;;;167.90;40.00;;;;;;;;;;4987188;28;20561;-84
2022/12/23 13:43:20;;;;;;;160.73;38.13;;;;;;;;;;4984550;28;20014;-81
2022/12/23 13:45:46;;;;;;;158.38;36.92;;;;;;;;;;4989426;28;20034;-81
2022/12/23 13:48:28;;;;;;;155.60;35.40;;;;;;;;;;4991442;28;20388;-80
2022/12/23 13:50:59;;;;;;;135.15;33.00;;;;;;;;;;5005068;28;20062;-84
2022/12/23 13:53:39;;;;;;;148.82;35.50;;;;;;;;;;4983248;28;20447;-82
2022/12/23 13:56:19;;;;;;;144.50;35.17;;;;;;;;;;4988353;28;20084;-83
2022/12/23 13:58:48;;;;;;;140.48;33.25;;;;;;;;;;4986621;28;20030;-84
2022/12/23 14:01:14;;;;;;;142.70;33.70;;;;;;;;;;4987564;28;20039;-81
2022/12/23 14:03:40;;;;;;;157.25;34.50;;;;;;;;;;4964360;28;20502;-82
2022/12/23 14:06:25;;;;;;;146.93;34.78;;;;;;;;;;4974909;28;20046;-83
2022/12/23 14:08:52;;;;;;;149.23;32.13;;;;;;;;;;4987899;28;20034;-84
2022/12/23 14:11:23;;;;;;;134.00;32.75;;;;;;;;;;4989556;28;20465;-83
2022/12/23 14:13:49;;;;;;;;;;;;;;;;;;4989080;28;20053;-80
2022/12/23 14:16:16;;;;;;;127.72;31.20;;;;;;;;;;5003508;28;19914;-81
2022/12/23 14:18:54;;;;;;;118.13;31.58;;;;;;;;;;4988605;28;20149;-83
2022/12/23 14:21:42;;;;;;;125.93;29.85;;;;;;;;;;4990519;28;20022;-82
2022/12/23 14:24:35;;;;;;;121.45;29.38;;;;;;;;;;4988377;28;20361;-82
2022/12/23 14:27:16;;;;;;;115.45;30.05;;;;;;;;;;4985098;28;20137;-83
2022/12/23 14:29:51;;;;;;;118.68;29.17;;;;;;;;;;4987223;28;20509;-82
2022/12/23 14:32:19;;;;;;;115.93;30.20;;;;;;;;;;4997316;28;20787;-82
2022/12/23 14:35:04;;;;;;;123.53;30.35;;;;;;;;;;4984662;28;20484;-82
2022/12/23 14:37:32;;;;;;;123.20;30.58;;;;;;;;;;5000206;28;20407;-83
2022/12/23 14:40:18;;;;;;;111.95;30.70;;;;;;;;;;4983419;28;20030;-83
2022/12/23 14:42:44;;;;;;;112.28;29.65;;;;;;;;;;4978578;28;20031;-83
2022/12/23 14:45:28;;;;;;;114.28;28.40;;;;;;;;;;4986320;28;20041;-84
2022/12/23 14:47:54;;;;;;;115.57;29.45;;;;;;;;;;5000515;28;20049;-84
2022/12/23 14:50:34;;;;;;;107.22;27.50;;;;;;;;;;4985835;28;20030;-82
2022/12/23 14:53:23;;;;;;;103.07;27.38;;;;;;;;;;4988080;28;20459;-83
2022/12/23 14:55:50;;;;;;;99.60;26.88;;;;;;;;;;4984462;28;20526;-82